sensor_id;sensor_type;location;lat;lon;timestamp;pressure;altitude;pressure_sealevel;temperature;humidity
63115;BME280;49208;50.874;6.466;2022-12-18T08:46:44;101508.31;;;-4.85;94.34
63115;BME280;49208;50.874;6.466;2022-12-18T08:49:10;101502.94;;;-4.29;89.99
63115;BME280;49208;50.874;6.466;2022-12-18T08:51:36;101504.97;;;-3.57;88.36
63115;BME280;49208;50.874;6.466;2022-12-18T08:54:02;101495.81;;;-2.75;84.32
63115;BME280;49208;50.874;6.466;2022-12-18T08:56:28;101494.09;;;-2.50;81.75
63115;BME280;49208;50.874;6.466;2022-12-18T08:58:55;101497.78;;;-2.44;81.11
63115;BME280;49208;50.874;6.466;2022-12-18T09:01:21;101488.63;;;-2.82;79.48
63115;BME280;49208;50.874;6.466;2022-12-18T09:03:48;101494.84;;;-3.02;81.78
63115;BME280;49208;50.874;6.466;2022-12-18T09:06:15;101502.59;;;-3.51;82.79
63115;BME280;49208;50.874;6.466;2022-12-18T09:08:42;101501.56;;;-3.77;83.58
63115;BME280;49208;50.874;6.466;2022-12-18T09:11:25;101500.22;;;-3.88;85.24
63115;BME280;49208;50.874;6.466;2022-12-18T09:13:51;101491.72;;;-3.84;85.74
63115;BME280;49208;50.874;6.466;2022-12-18T09:16:17;101478.72;;;-3.61;85.60
63115;BME280;49208;50.874;6.466;2022-12-18T09:18:43;101462.06;;;-3.20;85.64
63115;BME280;49208;50.874;6.466;2022-12-18T09:21:13;101459.28;;;-2.76;83.17
63115;BME280;49208;50.874;6.466;2022-12-18T09:23:39;101466.72;;;-2.63;81.99
63115;BME280;49208;50.874;6.466;2022-12-18T09:26:05;101457.09;;;-2.66;81.62
63115;BME280;49208;50.874;6.466;2022-12-18T09:28:30;101459.03;;;-2.84;82.26
63115;BME280;49208;50.874;6.466;2022-12-18T09:30:56;101460.44;;;-2.94;82.47
63115;BME280;49208;50.874;6.466;2022-12-18T09:33:21;101457.09;;;-3.14;83.54
63115;BME280;49208;50.874;6.466;2022-12-18T09:35:46;101459.16;;;-3.29;84.35
63115;BME280;49208;50.874;6.466;2022-12-18T09:38:14;101456.97;;;-3.41;85.35
63115;BME280;49208;50.874;6.466;2022-12-18T09:40:52;101460.00;;;-3.53;86.46
63115;BME280;49208;50.874;6.466;2022-12-18T09:43:22;101449.38;;;-3.59;86.80
63115;BME280;49208;50.874;6.466;2022-12-18T09:45:55;101442.84;;;-3.70;87.32
63115;BME280;49208;50.874;6.466;2022-12-18T09:48:30;101437.66;;;-3.70;87.78
63115;BME280;49208;50.874;6.466;2022-12-18T09:51:02;101438.28;;;-3.76;88.21
63115;BME280;49208;50.874;6.466;2022-12-18T09:53:31;101432.34;;;-3.73;88.33
63115;BME280;49208;50.874;6.466;2022-12-18T09:55:59;101425.47;;;-3.71;88.55
63115;BME280;49208;50.874;6.466;2022-12-18T09:58:33;101426.28;;;-3.72;88.16
63115;BME280;49208;50.874;6.466;2022-12-18T10:01:01;101424.78;;;-3.67;88.58
63115;BME280;49208;50.874;6.466;2022-12-18T10:03:26;101434.41;;;-3.64;88.60
63115;BME280;49208;50.874;6.466;2022-12-18T10:08:35;101434.31;;;-3.43;88.79
63115;BME280;49208;50.874;6.466;2022-12-18T10:11:25;101432.25;;;-3.30;88.32
63115;BME280;49208;50.874;6.466;2022-12-18T10:17:06;101419.25;;;-3.04;88.70
63115;BME280;49208;50.874;6.466;2022-12-18T10:19:50;101425.72;;;-2.93;87.19
63115;BME280;49208;50.874;6.466;2022-12-18T10:28:12;101412.94;;;-2.61;87.05
63115;BME280;49208;50.874;6.466;2022-12-18T10:30:40;101405.91;;;-2.63;87.17
63115;BME280;49208;50.874;6.466;2022-12-18T10:33:05;101409.59;;;-2.57;87.64
63115;BME280;49208;50.874;6.466;2022-12-18T10:35:31;101399.25;;;-2.54;87.63
63115;BME280;49208;50.874;6.466;2022-12-18T10:40:56;101394.72;;;-2.59;87.23
63115;BME280;49208;50.874;6.466;2022-12-18T10:43:28;101393.09;;;-2.56;88.04
63115;BME280;49208;50.874;6.466;2022-12-18T10:51:33;101398.66;;;-2.45;87.46
63115;BME280;49208;50.874;6.466;2022-12-18T10:54:02;101398.91;;;-2.37;87.51
63115;BME280;49208;50.874;6.466;2022-12-18T10:56:30;101393.09;;;-2.29;87.36
63115;BME280;49208;50.874;6.466;2022-12-18T10:59:04;101393.16;;;-2.27;86.45
63115;BME280;49208;50.874;6.466;2022-12-18T11:04:26;101384.78;;;-2.17;87.19
63115;BME280;49208;50.874;6.466;2022-12-18T11:06:55;101387.59;;;-2.11;86.81
63115;BME280;49208;50.874;6.466;2022-12-18T11:09:24;101390.25;;;-2.09;86.60
63115;BME280;49208;50.874;6.466;2022-12-18T11:11:51;101379.81;;;-2.09;86.07
63115;BME280;49208;50.874;6.466;2022-12-18T11:14:31;101388.59;;;-2.07;86.67
63115;BME280;49208;50.874;6.466;2022-12-18T11:16:59;101388.59;;;-2.06;86.76
63115;BME280;49208;50.874;6.466;2022-12-18T11:19:37;101379.09;;;-2.04;86.05
63115;BME280;49208;50.874;6.466;2022-12-18T11:22:32;101373.13;;;-2.01;85.90
63115;BME280;49208;50.874;6.466;2022-12-18T11:25:05;101368.72;;;-2.02;86.09
63115;BME280;49208;50.874;6.466;2022-12-18T11:27:32;101367.16;;;-1.97;86.55
63115;BME280;49208;50.874;6.466;2022-12-18T11:33:14;101348.97;;;-1.94;86.52
63115;BME280;49208;50.874;6.466;2022-12-18T11:38:18;101338.59;;;-1.92;84.47
63115;BME280;49208;50.874;6.466;2022-12-18T11:40:49;101345.53;;;-1.93;84.05
63115;BME280;49208;50.874;6.466;2022-12-18T11:43:21;101346.31;;;-1.95;85.59
63115;BME280;49208;50.874;6.466;2022-12-18T11:45:58;101333.13;;;-2.00;84.83
63115;BME280;49208;50.874;6.466;2022-12-18T11:48:29;101337.47;;;-2.00;85.67
63115;BME280;49208;50.874;6.466;2022-12-18T11:50:58;101337.53;;;-1.99;85.41
63115;BME280;49208;50.874;6.466;2022-12-18T11:53:26;101319.28;;;-1.99;83.89
63115;BME280;49208;50.874;6.466;2022-12-18T11:58:58;101313.19;;;-1.98;84.89
63115;BME280;49208;50.874;6.466;2022-12-18T12:11:48;101317.03;;;-1.87;81.90
63115;BME280;49208;50.874;6.466;2022-12-18T12:14:25;101328.28;;;-1.88;81.11
63115;BME280;49208;50.874;6.466;2022-12-18T12:25:04;101285.59;;;-1.90;82.74
63115;BME280;49208;50.874;6.466;2022-12-18T12:27:51;101294.25;;;-1.92;82.04
63115;BME280;49208;50.874;6.466;2022-12-18T12:30:22;101295.03;;;-1.95;82.71
63115;BME280;49208;50.874;6.466;2022-12-18T12:35:49;101299.41;;;-1.94;81.62
63115;BME280;49208;50.874;6.466;2022-12-18T12:38:24;101289.06;;;-1.91;82.71
63115;BME280;49208;50.874;6.466;2022-12-18T12:40:56;101301.25;;;-1.90;82.38
63115;BME280;49208;50.874;6.466;2022-12-18T12:46:19;101287.41;;;-1.87;83.87
63115;BME280;49208;50.874;6.466;2022-12-18T12:48:49;101302.31;;;-1.83;83.21
63115;BME280;49208;50.874;6.466;2022-12-18T12:51:25;101292.78;;;-1.83;83.48
63115;BME280;49208;50.874;6.466;2022-12-18T12:53:53;101285.03;;;-1.79;83.77
63115;BME280;49208;50.874;6.466;2022-12-18T12:56:20;101268.44;;;-1.81;83.72
63115;BME280;49208;50.874;6.466;2022-12-18T13:01:37;101260.50;;;-1.86;83.73
63115;BME280;49208;50.874;6.466;2022-12-18T13:09:03;101246.56;;;-1.87;82.47
63115;BME280;49208;50.874;6.466;2022-12-18T13:11:34;101247.44;;;-1.86;82.93
63115;BME280;49208;50.874;6.466;2022-12-18T13:14:35;101237.84;;;-1.87;81.25
63115;BME280;49208;50.874;6.466;2022-12-18T13:20:19;101231.75;;;-1.88;80.59
63115;BME280;49208;50.874;6.466;2022-12-18T13:22:46;101229.13;;;-1.88;80.18
63115;BME280;49208;50.874;6.466;2022-12-18T13:25:37;101234.31;;;-1.89;80.00
63115;BME280;49208;50.874;6.466;2022-12-18T13:28:12;101228.22;;;-1.90;79.69
63115;BME280;49208;50.874;6.466;2022-12-18T13:30:42;101217.69;;;-1.93;79.73
63115;BME280;49208;50.874;6.466;2022-12-18T13:36:35;101226.41;;;-1.92;80.23
63115;BME280;49208;50.874;6.466;2022-12-18T13:42:36;101223.69;;;-1.95;79.82
63115;BME280;49208;50.874;6.466;2022-12-18T13:44:35;101208.84;;;-1.98;79.91
63115;BME280;49208;50.874;6.466;2022-12-18T13:47:03;101208.78;;;-1.99;80.21
63115;BME280;49208;50.874;6.466;2022-12-18T13:49:38;101218.28;;;-2.03;80.04
63115;BME280;49208;50.874;6.466;2022-12-18T13:52:20;101218.22;;;-2.05;79.62
63115;BME280;49208;50.874;6.466;2022-12-18T13:54:52;101217.19;;;-2.10;80.81
63115;BME280;49208;50.874;6.466;2022-12-18T13:59:59;101218.00;;;-2.12;81.30
63115;BME280;49208;50.874;6.466;2022-12-18T14:02:44;101211.88;;;-2.14;80.70
63115;BME280;49208;50.874;6.466;2022-12-18T14:05:39;101219.56;;;-2.19;81.02
63115;BME280;49208;50.874;6.466;2022-12-18T14:08:08;101206.47;;;-2.20;80.27
63115;BME280;49208;50.874;6.466;2022-12-18T14:10:35;101188.91;;;-2.28;81.17
63115;BME280;49208;50.874;6.466;2022-12-18T14:13:06;101191.41;;;-2.31;81.52
63115;BME280;49208;50.874;6.466;2022-12-18T14:15:43;101188.72;;;-2.34;81.78
63115;BME280;49208;50.874;6.466;2022-12-18T14:20:44;101185.00;;;-2.42;81.62
63115;BME280;49208;50.874;6.466;2022-12-18T14:25:54;101182.28;;;-2.47;81.93
63115;BME280;49208;50.874;6.466;2022-12-18T14:28:20;101186.56;;;-2.49;82.81
63115;BME280;49208;50.874;6.466;2022-12-18T14:30:47;101182.97;;;-2.52;82.81
63115;BME280;49208;50.874;6.466;2022-12-18T14:33:18;101186.31;;;-2.56;82.81
63115;BME280;49208;50.874;6.466;2022-12-18T14:36:05;101174.84;;;-2.61;83.26
63115;BME280;49208;50.874;6.466;2022-12-18T14:41:02;101171.13;;;-2.71;83.98
63115;BME280;49208;50.874;6.466;2022-12-18T14:43:31;101181.50;;;-2.73;83.77
63115;BME280;49208;50.874;6.466;2022-12-18T14:45:57;101176.16;;;-2.77;84.03
63115;BME280;49208;50.874;6.466;2022-12-18T14:51:05;101177.72;;;-2.82;83.83
63115;BME280;49208;50.874;6.466;2022-12-18T14:53:54;101174.22;;;-2.83;84.64
63115;BME280;49208;50.874;6.466;2022-12-18T14:56:22;101171.53;;;-2.86;84.43
63115;BME280;49208;50.874;6.466;2022-12-18T14:58:50;101168.88;;;-2.88;84.20
63115;BME280;49208;50.874;6.466;2022-12-18T15:01:33;101183.44;;;-2.94;84.54
63115;BME280;49208;50.874;6.466;2022-12-18T15:04:01;101180.84;;;-2.94;84.07
63115;BME280;49208;50.874;6.466;2022-12-18T15:06:32;101178.19;;;-2.96;84.62
63115;BME280;49208;50.874;6.466;2022-12-18T15:09:00;101171.97;;;-2.99;84.27
63115;BME280;49208;50.874;6.466;2022-12-18T15:13:59;101177.00;;;-3.06;85.08
63115;BME280;49208;50.874;6.466;2022-12-18T15:16:25;101183.81;;;-3.11;85.04
63115;BME280;49208;50.874;6.466;2022-12-18T15:18:52;101181.13;;;-3.12;85.74
63115;BME280;49208;50.874;6.466;2022-12-18T15:21:19;101184.59;;;-3.13;85.43
63115;BME280;49208;50.874;6.466;2022-12-18T15:23:50;101192.41;;;-3.13;85.40
63115;BME280;49208;50.874;6.466;2022-12-18T15:26:18;101187.13;;;-3.15;85.76
63115;BME280;49208;50.874;6.466;2022-12-18T15:36:33;101192.03;;;-3.24;87.13
63115;BME280;49208;50.874;6.466;2022-12-18T15:39:02;101199.69;;;-3.29;87.05
63115;BME280;49208;50.874;6.466;2022-12-18T15:41:31;101199.56;;;-3.33;87.35
63115;BME280;49208;50.874;6.466;2022-12-18T15:43:56;101195.16;;;-3.34;87.62
63115;BME280;49208;50.874;6.466;2022-12-18T15:46:24;101197.75;;;-3.36;87.80
63115;BME280;49208;50.874;6.466;2022-12-18T15:48:54;101197.63;;;-3.39;88.28
63115;BME280;49208;50.874;6.466;2022-12-18T15:51:31;101194.09;;;-3.41;89.01
63115;BME280;49208;50.874;6.466;2022-12-18T15:53:59;101175.06;;;-3.40;89.03
63115;BME280;49208;50.874;6.466;2022-12-18T15:56:25;101174.84;;;-3.46;89.22
63115;BME280;49208;50.874;6.466;2022-12-18T15:59:12;101179.13;;;-3.48;89.41
63115;BME280;49208;50.874;6.466;2022-12-18T16:01:38;101171.34;;;-3.47;89.46
63115;BME280;49208;50.874;6.466;2022-12-18T16:04:03;101171.41;;;-3.45;89.52
63115;BME280;49208;50.874;6.466;2022-12-18T16:06:29;101160.09;;;-3.46;89.74
63115;BME280;49208;50.874;6.466;2022-12-18T16:08:54;101158.31;;;-3.48;89.97
63115;BME280;49208;50.874;6.466;2022-12-18T16:14:04;101160.97;;;-3.45;90.19
63115;BME280;49208;50.874;6.466;2022-12-18T16:16:30;101162.78;;;-3.42;89.92
63115;BME280;49208;50.874;6.466;2022-12-18T16:18:56;101171.44;;;-3.43;90.04
63115;BME280;49208;50.874;6.466;2022-12-18T16:21:21;101162.84;;;-3.41;89.62
63115;BME280;49208;50.874;6.466;2022-12-18T16:23:47;101173.06;;;-3.47;90.50
63115;BME280;49208;50.874;6.466;2022-12-18T16:26:12;101163.59;;;-3.45;90.40
63115;BME280;49208;50.874;6.466;2022-12-18T16:28:37;101151.38;;;-3.48;90.74
63115;BME280;49208;50.874;6.466;2022-12-18T16:31:03;101149.69;;;-3.46;91.10
63115;BME280;49208;50.874;6.466;2022-12-18T16:33:28;101159.25;;;-3.45;91.09
63115;BME280;49208;50.874;6.466;2022-12-18T16:35:53;101165.31;;;-3.46;91.02
63115;BME280;49208;50.874;6.466;2022-12-18T16:38:19;101157.50;;;-3.46;91.34
63115;BME280;49208;50.874;6.466;2022-12-18T16:40:44;101156.66;;;-3.45;91.58
63115;BME280;49208;50.874;6.466;2022-12-18T16:43:28;101156.78;;;-3.41;91.33
63115;BME280;49208;50.874;6.466;2022-12-18T16:45:53;101157.75;;;-3.38;91.05
63115;BME280;49208;50.874;6.466;2022-12-18T16:48:22;101153.50;;;-3.36;90.89
63115;BME280;49208;50.874;6.466;2022-12-18T16:50:47;101143.84;;;-3.38;90.59
63115;BME280;49208;50.874;6.466;2022-12-18T16:53:13;101151.63;;;-3.40;90.98
63115;BME280;49208;50.874;6.466;2022-12-18T16:55:38;101148.97;;;-3.41;91.22
63115;BME280;49208;50.874;6.466;2022-12-18T16:58:03;101142.03;;;-3.41;91.24
63115;BME280;49208;50.874;6.466;2022-12-18T17:00:29;101149.91;;;-3.39;90.71
63115;BME280;49208;50.874;6.466;2022-12-18T17:02:54;101152.59;;;-3.36;91.22
63115;BME280;49208;50.874;6.466;2022-12-18T17:05:19;101143.91;;;-3.37;91.29
63115;BME280;49208;50.874;6.466;2022-12-18T17:07:45;101136.03;;;-3.38;91.50
63115;BME280;49208;50.874;6.466;2022-12-18T17:10:10;101149.03;;;-3.38;91.72
63115;BME280;49208;50.874;6.466;2022-12-18T17:12:35;101135.09;;;-3.40;91.45
63115;BME280;49208;50.874;6.466;2022-12-18T17:15:01;101144.69;;;-3.39;91.70
63115;BME280;49208;50.874;6.466;2022-12-18T17:17:26;101135.16;;;-3.39;91.99
63115;BME280;49208;50.874;6.466;2022-12-18T17:19:52;101142.91;;;-3.40;92.18
63115;BME280;49208;50.874;6.466;2022-12-18T17:22:18;101152.56;;;-3.38;91.91
63115;BME280;49208;50.874;6.466;2022-12-18T17:24:43;101146.56;;;-3.35;91.51
63115;BME280;49208;50.874;6.466;2022-12-18T17:27:10;101144.84;;;-3.35;91.52
63115;BME280;49208;50.874;6.466;2022-12-18T17:29:35;101134.38;;;-3.36;91.84
63115;BME280;49208;50.874;6.466;2022-12-18T17:32:01;101136.22;;;-3.34;91.34
63115;BME280;49208;50.874;6.466;2022-12-18T17:34:26;101140.47;;;-3.36;91.81
63115;BME280;49208;50.874;6.466;2022-12-18T17:36:52;101145.72;;;-3.34;91.90
63115;BME280;49208;50.874;6.466;2022-12-18T17:39:19;101136.03;;;-3.38;92.13
63115;BME280;49208;50.874;6.466;2022-12-18T17:41:45;101131.75;;;-3.38;92.80
63115;BME280;49208;50.874;6.466;2022-12-18T17:44:11;101143.84;;;-3.38;93.00
63115;BME280;49208;50.874;6.466;2022-12-18T17:46:36;101142.16;;;-3.36;93.05
63115;BME280;49208;50.874;6.466;2022-12-18T17:49:02;101147.50;;;-3.33;92.59
63115;BME280;49208;50.874;6.466;2022-12-18T17:51:28;101141.44;;;-3.32;92.94
63115;BME280;49208;50.874;6.466;2022-12-18T17:53:53;101138.00;;;-3.31;93.27
63115;BME280;49208;50.874;6.466;2022-12-18T17:56:20;101150.34;;;-3.26;92.96
63115;BME280;49208;50.874;6.466;2022-12-18T17:58:46;101149.50;;;-3.25;93.14
63115;BME280;49208;50.874;6.466;2022-12-18T18:01:19;101132.16;;;-3.24;93.11
63115;BME280;49208;50.874;6.466;2022-12-18T18:03:45;101136.63;;;-3.20;93.33
63115;BME280;49208;50.874;6.466;2022-12-18T18:06:11;101144.41;;;-3.21;93.63
63115;BME280;49208;50.874;6.466;2022-12-18T18:08:36;101146.09;;;-3.22;93.85
63115;BME280;49208;50.874;6.466;2022-12-18T18:11:04;101141.81;;;-3.20;94.36
63115;BME280;49208;50.874;6.466;2022-12-18T18:13:49;101119.50;;;-3.13;93.92
63115;BME280;49208;50.874;6.466;2022-12-18T18:16:27;101124.03;;;-3.06;93.63
63115;BME280;49208;50.874;6.466;2022-12-18T18:18:56;101124.91;;;-3.06;93.29
63115;BME280;49208;50.874;6.466;2022-12-18T18:21:22;101130.13;;;-3.06;93.62
63115;BME280;49208;50.874;6.466;2022-12-18T18:23:47;101125.97;;;-2.99;93.56
63115;BME280;49208;50.874;6.466;2022-12-18T18:26:13;101139.06;;;-2.97;93.10
63115;BME280;49208;50.874;6.466;2022-12-18T18:28:38;101130.38;;;-2.98;93.19
63115;BME280;49208;50.874;6.466;2022-12-18T18:31:06;101133.03;;;-2.96;93.33
63115;BME280;49208;50.874;6.466;2022-12-18T18:33:31;101133.03;;;-2.96;93.03
63115;BME280;49208;50.874;6.466;2022-12-18T18:35:57;101122.69;;;-2.93;93.16
63115;BME280;49208;50.874;6.466;2022-12-18T18:38:23;101128.88;;;-2.90;92.87
63115;BME280;49208;50.874;6.466;2022-12-18T18:41:03;101121.13;;;-2.87;92.55
63115;BME280;49208;50.874;6.466;2022-12-18T18:43:30;101122.94;;;-2.86;92.54
63115;BME280;49208;50.874;6.466;2022-12-18T18:45:57;101117.84;;;-2.81;92.76
63115;BME280;49208;50.874;6.466;2022-12-18T18:48:24;101117.03;;;-2.80;92.77
63115;BME280;49208;50.874;6.466;2022-12-18T18:50:59;101118.81;;;-2.77;92.65
63115;BME280;49208;50.874;6.466;2022-12-18T18:53:25;101115.34;;;-2.78;92.71
63115;BME280;49208;50.874;6.466;2022-12-18T18:55:51;101115.38;;;-2.76;92.67
63115;BME280;49208;50.874;6.466;2022-12-18T18:58:16;101119.81;;;-2.74;92.67
63115;BME280;49208;50.874;6.466;2022-12-18T19:00:42;101126.72;;;-2.74;92.12
63115;BME280;49208;50.874;6.466;2022-12-18T19:03:07;101120.63;;;-2.75;92.17
63115;BME280;49208;50.874;6.466;2022-12-18T19:05:33;101120.63;;;-2.75;92.20
63115;BME280;49208;50.874;6.466;2022-12-18T19:07:58;101115.41;;;-2.75;91.80
63115;BME280;49208;50.874;6.466;2022-12-18T19:10:24;101115.34;;;-2.78;91.36
63115;BME280;49208;50.874;6.466;2022-12-18T19:12:49;101111.84;;;-2.78;91.38
63115;BME280;49208;50.874;6.466;2022-12-18T19:15:33;101110.03;;;-2.81;91.99
63115;BME280;49208;50.874;6.466;2022-12-18T19:17:59;101102.16;;;-2.82;91.96
63115;BME280;49208;50.874;6.466;2022-12-18T19:20:25;101103.94;;;-2.81;91.54
63115;BME280;49208;50.874;6.466;2022-12-18T19:22:50;101103.13;;;-2.79;91.58
63115;BME280;49208;50.874;6.466;2022-12-18T19:25:15;101104.00;;;-2.78;91.91
63115;BME280;49208;50.874;6.466;2022-12-18T19:27:41;101113.63;;;-2.77;91.74
63115;BME280;49208;50.874;6.466;2022-12-18T19:30:07;101113.63;;;-2.77;91.20
63115;BME280;49208;50.874;6.466;2022-12-18T19:32:32;101121.50;;;-2.74;91.15
63115;BME280;49208;50.874;6.466;2022-12-18T19:34:58;101121.56;;;-2.73;90.47
63115;BME280;49208;50.874;6.466;2022-12-18T19:37:23;101116.47;;;-2.68;90.63
63115;BME280;49208;50.874;6.466;2022-12-18T19:39:49;101120.91;;;-2.66;90.70
63115;BME280;49208;50.874;6.466;2022-12-18T19:42:14;101119.19;;;-2.65;90.75
63115;BME280;49208;50.874;6.466;2022-12-18T19:44:40;101119.31;;;-2.60;90.81
63115;BME280;49208;50.874;6.466;2022-12-18T19:47:05;101120.25;;;-2.58;90.60
63115;BME280;49208;50.874;6.466;2022-12-18T19:49:30;101120.38;;;-2.54;90.13
63115;BME280;49208;50.874;6.466;2022-12-18T19:51:57;101117.75;;;-2.54;90.53
63115;BME280;49208;50.874;6.466;2022-12-18T19:54:22;101128.31;;;-2.49;90.57
63115;BME280;49208;50.874;6.466;2022-12-18T19:56:47;101119.66;;;-2.48;91.06
63115;BME280;49208;50.874;6.466;2022-12-18T19:59:13;101122.38;;;-2.44;91.02
63115;BME280;49208;50.874;6.466;2022-12-18T20:01:38;101124.28;;;-2.38;90.14
63115;BME280;49208;50.874;6.466;2022-12-18T20:04:04;101120.84;;;-2.37;90.26
63115;BME280;49208;50.874;6.466;2022-12-18T20:08:59;101123.59;;;-2.32;89.62
63115;BME280;49208;50.874;6.466;2022-12-18T20:11:25;101116.59;;;-2.33;89.83
63115;BME280;49208;50.874;6.466;2022-12-18T20:13:50;101121.94;;;-2.29;89.35
63115;BME280;49208;50.874;6.466;2022-12-18T20:16:16;101125.47;;;-2.27;89.62
63115;BME280;49208;50.874;6.466;2022-12-18T20:18:42;101119.41;;;-2.26;89.52
63115;BME280;49208;50.874;6.466;2022-12-18T20:21:07;101116.75;;;-2.27;89.77
63115;BME280;49208;50.874;6.466;2022-12-18T20:23:33;101128.97;;;-2.26;89.76
63115;BME280;49208;50.874;6.466;2022-12-18T20:25:59;101138.50;;;-2.27;89.36
63115;BME280;49208;50.874;6.466;2022-12-18T20:28:25;101135.06;;;-2.26;89.66
63115;BME280;49208;50.874;6.466;2022-12-18T20:30:58;101144.63;;;-2.25;89.24
63115;BME280;49208;50.874;6.466;2022-12-18T20:33:24;101129.91;;;-2.24;89.24
63115;BME280;49208;50.874;6.466;2022-12-18T20:35:50;101138.66;;;-2.20;89.64
63115;BME280;49208;50.874;6.466;2022-12-18T20:38:15;101129.91;;;-2.22;90.00
63115;BME280;49208;50.874;6.466;2022-12-18T20:40:41;101132.50;;;-2.24;90.27
63115;BME280;49208;50.874;6.466;2022-12-18T20:43:07;101147.34;;;-2.21;89.38
63115;BME280;49208;50.874;6.466;2022-12-18T20:45:32;101144.78;;;-2.20;89.63
63115;BME280;49208;50.874;6.466;2022-12-18T20:47:57;101150.13;;;-2.15;89.06
63115;BME280;49208;50.874;6.466;2022-12-18T20:50:25;101137.09;;;-2.15;89.63
63115;BME280;49208;50.874;6.466;2022-12-18T20:52:50;101153.50;;;-2.18;88.96
63115;BME280;49208;50.874;6.466;2022-12-18T20:55:16;101155.41;;;-2.12;88.84
63115;BME280;49208;50.874;6.466;2022-12-18T20:57:41;101160.47;;;-2.18;89.46
63115;BME280;49208;50.874;6.466;2022-12-18T21:00:07;101168.25;;;-2.20;89.98
63115;BME280;49208;50.874;6.466;2022-12-18T21:02:33;101150.88;;;-2.19;90.31
63115;BME280;49208;50.874;6.466;2022-12-18T21:04:58;101144.63;;;-2.25;90.76
63115;BME280;49208;50.874;6.466;2022-12-18T21:07:23;101140.22;;;-2.27;91.78
63115;BME280;49208;50.874;6.466;2022-12-18T21:09:49;101134.94;;;-2.30;92.29
63115;BME280;49208;50.874;6.466;2022-12-18T21:12:15;101134.03;;;-2.31;93.50
63115;BME280;49208;50.874;6.466;2022-12-18T21:14:56;101145.41;;;-2.29;93.84
63115;BME280;49208;50.874;6.466;2022-12-18T21:17:24;101142.78;;;-2.30;95.07
63115;BME280;49208;50.874;6.466;2022-12-18T21:19:49;101137.56;;;-2.30;96.14
63115;BME280;49208;50.874;6.466;2022-12-18T21:22:15;101139.25;;;-2.32;95.99
63115;BME280;49208;50.874;6.466;2022-12-18T21:24:40;101134.91;;;-2.32;96.85
63115;BME280;49208;50.874;6.466;2022-12-18T21:27:05;101130.50;;;-2.33;97.22
63115;BME280;49208;50.874;6.466;2022-12-18T21:29:31;101135.88;;;-2.28;97.78
63115;BME280;49208;50.874;6.466;2022-12-18T21:31:57;101135.88;;;-2.28;97.91
63115;BME280;49208;50.874;6.466;2022-12-18T21:34:25;101136.81;;;-2.26;97.97
63115;BME280;49208;50.874;6.466;2022-12-18T21:36:51;101132.47;;;-2.26;97.96
63115;BME280;49208;50.874;6.466;2022-12-18T21:39:17;101131.59;;;-2.25;98.38
63115;BME280;49208;50.874;6.466;2022-12-18T21:41:43;101132.50;;;-2.24;98.73
63115;BME280;49208;50.874;6.466;2022-12-18T21:44:27;101135.13;;;-2.24;99.17
63115;BME280;49208;50.874;6.466;2022-12-18T21:46:53;101122.16;;;-2.21;99.92
63115;BME280;49208;50.874;6.466;2022-12-18T21:49:19;101111.78;;;-2.19;100.00
63115;BME280;49208;50.874;6.466;2022-12-18T21:51:52;101103.97;;;-2.18;100.00
63115;BME280;49208;50.874;6.466;2022-12-18T21:54:19;101101.44;;;-2.15;100.00
63115;BME280;49208;50.874;6.466;2022-12-18T21:57:01;101097.06;;;-2.16;100.00
63115;BME280;49208;50.874;6.466;2022-12-18T21:59:28;101090.16;;;-2.14;100.00
63115;BME280;49208;50.874;6.466;2022-12-18T22:01:56;101098.03;;;-2.12;100.00
63115;BME280;49208;50.874;6.466;2022-12-18T22:04:22;101093.69;;;-2.12;100.00
63115;BME280;49208;50.874;6.466;2022-12-18T22:06:47;101091.19;;;-2.09;100.00
63115;BME280;49208;50.874;6.466;2022-12-18T22:09:15;101095.53;;;-2.09;100.00
63115;BME280;49208;50.874;6.466;2022-12-18T22:11:41;101090.47;;;-2.01;100.00
63115;BME280;49208;50.874;6.466;2022-12-18T22:14:07;101099.28;;;-1.98;100.00
63115;BME280;49208;50.874;6.466;2022-12-18T22:16:33;101090.66;;;-1.95;100.00
63115;BME280;49208;50.874;6.466;2022-12-18T22:18:59;101077.66;;;-1.94;100.00
63115;BME280;49208;50.874;6.466;2022-12-18T22:21:29;101077.75;;;-1.89;100.00
63115;BME280;49208;50.874;6.466;2022-12-18T22:23:58;101060.41;;;-1.87;100.00
63115;BME280;49208;50.874;6.466;2022-12-18T22:26:25;101057.03;;;-1.83;100.00
63115;BME280;49208;50.874;6.466;2022-12-18T22:28:51;101056.25;;;-1.80;100.00
63115;BME280;49208;50.874;6.466;2022-12-18T22:31:35;101051.03;;;-1.80;100.00
63115;BME280;49208;50.874;6.466;2022-12-18T22:34:01;101047.63;;;-1.78;100.00
63115;BME280;49208;50.874;6.466;2022-12-18T22:36:27;101047.63;;;-1.78;100.00
63115;BME280;49208;50.874;6.466;2022-12-18T22:38:58;101045.06;;;-1.75;100.00
63115;BME280;49208;50.874;6.466;2022-12-18T22:41:23;101049.47;;;-1.72;100.00
63115;BME280;49208;50.874;6.466;2022-12-18T22:43:48;101038.19;;;-1.71;100.00
63115;BME280;49208;50.874;6.466;2022-12-18T22:46:16;101030.44;;;-1.68;100.00
63115;BME280;49208;50.874;6.466;2022-12-18T22:48:42;101024.44;;;-1.64;100.00
63115;BME280;49208;50.874;6.466;2022-12-18T22:51:15;101025.41;;;-1.60;100.00
63115;BME280;49208;50.874;6.466;2022-12-18T22:53:44;101022.88;;;-1.56;100.00
63115;BME280;49208;50.874;6.466;2022-12-18T22:56:10;101023.81;;;-1.54;100.00
63115;BME280;49208;50.874;6.466;2022-12-18T22:58:37;101029.97;;;-1.50;100.00
